Latest Coastal Weather Observations for Albany Airport

IDW60701

Issued at 6:32 am WST Friday 27 May 2016 (issued every 10 minutes, with the page automatically refreshed every 10 minutes)

About coastal observations | Map of coastal stations | Coastal observations for WA | Marine services | Other Formats
Station Details ID: 009999 Name: ALBANY AIRPORT Lat: -34.94 Lon: 117.82 Height: 68.4 m
Data from the previous 72 hours. | See also: Recent months at Albany Airport
Date/Time
WST
Temp

°C
Wind Pressure Rain
since 9am
mm
Weather Cloud Vis
km
Sea
Height
m
Swell
Dir
 
Speed
knots
Gust
knots
hPa Trend Height
m
Period
s
Dir
27/06:30am 11.4 NNW 9 11 1021.7 - 0.2 - Cloudy 10 - - - -
27/06:00am 11.3 NNW 7 10 1021.7 - 0.2 - Cloudy 10 - - - -
27/05:30am 10.9 NW 6 7 1021.4 - 0.2 - Cloudy 10 - - - -
27/05:00am 9.1 W 3 4 1021.4 - 0.2 - Cloudy 10 - - - -
27/04:30am 8.8 W 4 5 1021.4 - 0.2 - Cloudy 10 - - - -
27/04:00am 8.4 WNW 4 5 1021.2 - 0.2 - Partly cloudy 10 - - - -
27/03:30am 8.6 NNW 5 6 1021.3 - 0.2 - - 10 - - - -
27/03:00am 8.8 NW 6 7 1021.6 - 0.2 - Mostly clear 10 - - - -
27/02:30am 9.2 NW 5 6 1021.6 - 0.2 - Partly cloudy 10 - - - -
27/02:00am 8.5 N 4 5 1021.7 - 0.2 - - 10 - - - -
27/01:30am 9.7 NW 6 7 1021.5 - 0.2 - Partly cloudy 10 - - - -
27/01:00am 10.8 NW 6 7 1021.8 - 0.2 - Partly cloudy 10 - - - -
27/12:30am 11.5 W 5 7 1021.9 - 0.2 - Partly cloudy 10 - - - -
27/12:00am 11.1 NW 7 9 1022.0 - 0.0 - Mostly cloudy 10 - - - -
 
Date/Time
WST
Temp

°C
Wind Pressure Rain
since 9am
mm
Weather Cloud Vis
km
Sea
Height
m
Swell
Dir
 
Speed
knots
Gust
knots
hPa Trend Height
m
Period
s
Dir
26/11:30pm 10.1 NW 6 8 1021.6 - 0.0 - Partly cloudy 10 - - - -
26/11:00pm 10.4 NW 6 7 1021.6 - 0.0 - Partly cloudy 10 - - - -
26/10:30pm 10.8 NW 7 8 1021.5 - 0.0 - Partly cloudy 10 - - - -
26/10:00pm 10.2 NW 7 7 1021.2 - 0.0 - Partly cloudy 10 - - - -
26/09:30pm 10.8 NW 6 7 1021.2 - 0.0 - Partly cloudy 10 - - - -
26/09:00pm 10.2 NW 6 7 1021.1 - 0.0 - Partly cloudy 10 - - - -
26/08:30pm 10.8 WNW 5 6 1020.7 - 0.0 - Partly cloudy 10 - - - -
26/08:00pm 10.6 WNW 5 6 1020.5 - 0.0 - Partly cloudy 10 - - - -
26/07:30pm 11.3 NW 6 8 1020.2 - 0.0 - Partly cloudy 10 - - - -
26/07:00pm 11.1 NW 7 7 1019.8 - 0.0 - Partly cloudy 10 - - - -
26/06:30pm 10.4 NW 5 7 1019.3 - 0.0 - - 10 - - - -
26/06:00pm 11.5 WNW 6 8 1019.1 - 0.0 - Partly cloudy 10 - - - -
26/05:30pm 13.1 W 7 8 1018.6 - 0.0 - Partly cloudy 10 - - - -
26/05:00pm 13.7 W 8 10 1018.3 - 0.0 - - 10 - - - -
26/04:30pm 15.2 W 11 15 1018.0 - 0.0 - - 10 - - - -
26/04:00pm 16.1 W 12 17 1017.8 - 0.0 - Partly cloudy 10 - - - -
26/03:30pm 16.3 W 13 19 1017.4 - 0.0 - Mostly clear 10 - - - -
26/03:00pm 16.4 W 13 17 1017.2 - 0.0 - Mostly clear 10 - - - -
26/02:30pm 16.0 WNW 13 17 1016.9 - 0.0 - Mostly clear 10 - - - -
26/02:00pm 17.2 WSW 14 21 1016.2 - 0.0 Showers Mostly clear 10 - - - -
26/01:30pm 16.9 WSW 15 22 1016.0 - 0.0 - Mostly clear 10 - - - -
26/01:00pm 17.0 W 16 21 1015.9 - 0.0 - Mostly clear 10 - - - -
26/12:30pm 16.7 W 15 21 1015.9 - 0.0 - Mostly clear 10 - - - -
26/12:00pm 16.3 WSW 10 17 1015.8 - 0.0 - Mostly clear 10 - - - -
26/11:30am 14.8 W 12 18 1015.8 - 0.0 - Mostly clear 10 - - - -
26/11:00am 13.7 SW 12 17 1015.8 - 0.0 - Mostly clear 10 - - - -
26/10:30am 15.8 WNW 12 16 1015.1 - 0.0 - Mostly clear 10 - - - -
26/10:00am 14.5 WNW 12 16 1014.7 - 0.0 - Mostly clear 10 - - - -
26/09:30am 13.0 W 10 14 1014.5 - 0.0 - Mostly clear 10 - - - -
26/09:00am 12.7 WNW 12 15 1013.6 - 4.2 - Mostly clear 10 - - - -
26/08:30am 11.8 WNW 9 13 1013.2 - 4.2 - Mostly clear 10 - - - -
26/08:00am 10.9 NW 9 13 1012.9 - 4.2 - Mostly clear 10 - - - -
26/07:30am 10.2 NW 8 11 1012.3 - 4.2 - Mostly clear 10 - - - -
26/07:00am 10.1 WNW 9 11 1011.7 - 4.2 - Mostly clear 10 - - - -
26/06:30am 10.3 NW 9 13 1011.1 - 4.2 - - 10 - - - -
26/06:00am 10.8 NW 10 13 1010.9 - 4.2 - Partly cloudy 10 - - - -
26/05:38am 11.2 W 12 16 1010.7 - 4.2 - Partly cloudy 10 - - - -
26/05:30am 11.3 W 14 19 1010.8 - 4.2 - Partly cloudy 8 - - - -
26/05:09am 11.4 W 14 21 1010.4 - 2.8 - Partly cloudy 6 - - - -
26/05:00am 11.6 W 15 21 1010.1 - 2.0 - Partly cloudy 7 - - - -
26/04:30am 11.7 WNW 13 17 1009.1 - 2.0 - - 10 - - - -
26/04:00am 11.3 NW 12 17 1008.5 - 2.0 - - 10 - - - -
26/03:30am 11.1 NW 11 15 1008.4 - 2.0 - - 10 - - - -
26/03:00am 11.1 NW 11 14 1008.5 - 2.0 - - 10 - - - -
26/02:30am 11.0 NW 11 14 1008.5 - 2.0 - - 10 - - - -
26/02:00am 11.0 NW 9 13 1008.2 - 2.0 - - 10 - - - -
26/01:30am 11.3 NW 11 15 1008.5 - 2.0 - Partly cloudy 10 - - - -
26/01:00am 11.2 NW 10 14 1008.7 - 2.0 - Partly cloudy 10 - - - -
26/12:30am 11.1 NNW 12 15 1008.5 - 2.0 - Partly cloudy 10 - - - -
26/12:00am 11.4 NW 9 12 1008.8 - 2.0 - Mostly cloudy 10 - - - -
 
Date/Time
WST
Temp

°C
Wind Pressure Rain
since 9am
mm
Weather Cloud Vis
km
Sea
Height
m
Swell
Dir
 
Speed
knots
Gust
knots
hPa Trend Height
m
Period
s
Dir
25/11:30pm 10.9 NNW 8 11 1008.8 - 2.0 - Partly cloudy 10 - - - -
25/11:00pm 11.1 NNW 8 12 1009.2 - 2.0 - Partly cloudy 10 - - - -
25/10:30pm 11.5 NNW 9 12 1009.3 - 2.0 - Partly cloudy 10 - - - -
25/10:00pm 11.7 NNW 11 14 1009.5 - 2.0 - Partly cloudy 10 - - - -
25/09:30pm 11.2 NNW 10 13 1009.7 - 2.0 - Partly cloudy 10 - - - -
25/09:00pm 11.7 NNW 10 14 1009.6 - 2.0 - Mostly clear 10 - - - -
25/08:30pm 11.5 NNW 9 14 1009.6 - 2.0 - Partly cloudy 10 - - - -
25/08:00pm 11.3 NNW 8 11 1009.8 - 2.0 - Partly cloudy 10 - - - -
25/07:30pm 11.5 NNW 9 12 1009.6 - 2.0 - Partly cloudy 10 - - - -
25/07:00pm 11.4 N 7 9 1009.3 - 2.0 - Partly cloudy 10 - - - -
25/06:30pm 11.1 N 7 8 1009.4 - 2.0 - Partly cloudy 10 - - - -
25/06:00pm 11.9 NNW 6 7 1009.2 - 2.0 - Cloudy 10 - - - -
25/05:30pm 12.1 WNW 6 7 1009.0 - 2.0 - Partly cloudy 10 - - - -
25/05:00pm 12.8 WNW 10 14 1008.8 - 1.8 - Partly cloudy 10 - - - -
25/04:30pm 13.5 NW 8 10 1008.6 - 1.4 - Partly cloudy 10 - - - -
25/04:00pm 14.4 NW 10 13 1008.4 - 1.4 - Partly cloudy 10 - - - -
25/03:30pm 14.7 NW 10 12 1008.3 - 1.4 - Partly cloudy 10 - - - -
25/03:00pm 14.2 WNW 7 9 1008.3 - 1.4 - Cloudy 10 - - - -
25/02:44pm 13.3 WNW 7 9 1008.2 - 1.4 - Mostly clear 10 - - - -
25/02:30pm 12.7 WNW 11 18 1008.3 - 1.2 - Mostly clear 10 - - - -
25/02:21pm 13.5 W 12 17 1008.4 - 0.8 Showers Mostly clear 3 - - - -
25/02:00pm 16.2 W 6 10 1007.9 - 0.6 - Partly cloudy 10 - - - -
25/01:30pm 14.9 W 7 10 1008.0 - 0.6 - Mostly clear 10 - - - -
25/01:00pm 13.3 WSW 7 10 1008.0 - 0.6 - Mostly clear 10 - - - -
25/12:39pm 14.1 WSW 9 11 1008.3 - 0.0 Showers Mostly clear 5 - - - -
25/12:30pm 15.3 NNW 13 17 1008.1 - 0.0 Showers Partly cloudy 10 - - - -
25/12:00pm 15.4 NW 10 14 1008.3 - 0.0 - Cloudy 10 - - - -
25/11:30am 15.3 WNW 10 14 1008.7 - 0.0 - Mostly cloudy 10 - - - -
25/11:00am 15.4 NW 9 14 1008.9 - 0.0 - Mostly clear 10 - - - -
25/10:30am 14.1 NW 9 11 1009.0 - 0.0 - Mostly clear 10 - - - -
25/10:00am 12.7 NW 8 10 1009.2 - 0.0 - Partly cloudy 10 - - - -
25/09:30am 12.5 WNW 11 14 1009.4 - 0.0 - Partly cloudy 10 - - - -
25/09:00am 10.8 NW 8 13 1009.6 - 0.4 - Cloudy 10 - - - -
25/08:30am 10.5 NW 10 13 1009.4 - 0.4 Showers Mostly cloudy 6 - - - -
25/08:00am 9.7 NW 8 11 1009.3 - 0.4 - Mostly clear 10 - - - -
25/07:30am 9.5 NW 8 10 1009.2 - 0.4 - Mostly clear 10 - - - -
25/07:00am 9.2 NW 8 11 1008.9 - 0.4 - Mostly clear 10 - - - -
25/06:30am 9.0 NNW 8 10 1008.5 - 0.4 - Partly cloudy 10 - - - -
25/06:00am 9.1 NNW 6 8 1008.3 - 0.4 - Cloudy 10 - - - -
25/05:36am 9.2 NNW 7 10 1008.1 - 0.4 - Partly cloudy 10 - - - -
25/05:30am 9.3 NW 8 10 1008.1 - 0.4 - Partly cloudy 10 - - - -
25/05:00am 9.6 WNW 10 15 1008.4 - 0.2 - Partly cloudy 3 - - - -
25/04:54am 9.8 WNW 10 15 1008.4 - 0.2 - Partly cloudy 6 - - - -
25/04:30am 9.4 NW 9 11 1007.9 - 0.2 - Partly cloudy 10 - - - -
25/04:00am 9.4 NW 8 11 1007.9 - 0.2 - Partly cloudy 10 - - - -
25/03:30am 10.0 NW 8 11 1008.1 - 0.2 - Partly cloudy 10 - - - -
25/03:00am 9.9 NW 7 8 1008.3 - 0.2 - Cloudy 10 - - - -
25/02:30am 9.3 NW 6 8 1007.9 - 0.2 - Partly cloudy 10 - - - -
25/02:00am 10.0 WNW 7 8 1007.8 - 0.2 - Partly cloudy 10 - - - -
25/01:30am 10.2 WNW 8 11 1008.0 - 0.2 - Partly cloudy 10 - - - -
25/01:00am 9.5 NW 7 9 1008.0 - 0.2 - Partly cloudy 10 - - - -
25/12:30am 9.5 WNW 6 7 1008.3 - 0.2 - Partly cloudy 10 - - - -
25/12:00am 9.3 NW 5 6 1008.3 - 0.2 - Cloudy 10 - - - -
 
Date/Time
WST
Temp

°C
Wind Pressure Rain
since 9am
mm
Weather Cloud Vis
km
Sea
Height
m
Swell
Dir
 
Speed
knots
Gust
knots
hPa Trend Height
m
Period
s
Dir
24/11:36pm 9.5 WNW 6 9 1008.2 - 0.2 - Partly cloudy 10 - - - -
24/11:30pm 9.7 WNW 7 9 1008.3 - 0.2 - Partly cloudy 10 - - - -
24/11:18pm 10.0 W 10 14 1008.6 - 0.2 - Partly cloudy 6 - - - -
24/11:00pm 10.2 NW 7 9 1008.2 - 0.2 - Partly cloudy 10 - - - -
24/10:30pm 10.6 NW 8 11 1008.2 - 0.2 - Partly cloudy 10 - - - -
24/10:00pm 10.2 WNW 7 9 1008.4 - 0.2 - Partly cloudy 10 - - - -
24/09:30pm 9.9 NW 5 6 1008.2 - 0.2 - Partly cloudy 10 - - - -
24/09:00pm 9.1 NNW 5 6 1008.3 - 0.2 - Partly cloudy 10 - - - -
24/08:30pm 9.5 N 3 4 1008.1 - 0.2 - Partly cloudy 10 - - - -
24/08:00pm 10.4 WNW 4 5 1008.2 - 0.2 - Cloudy 10 - - - -
24/07:30pm 11.3 W 6 8 1008.0 - 0.2 - Partly cloudy 10 - - - -
24/07:00pm 11.7 WNW 6 8 1007.8 - 0.2 - Cloudy 10 - - - -
24/06:30pm 12.2 WNW 9 13 1007.5 - 0.2 - Partly cloudy 10 - - - -
24/06:00pm 12.4 W 10 14 1007.2 - 0.2 - Partly cloudy 10 - - - -
24/05:30pm 12.7 W 9 12 1006.7 - 0.2 - Partly cloudy 10 - - - -
24/05:00pm 13.1 W 12 17 1006.1 - 0.2 - Partly cloudy 10 - - - -
24/04:30pm 13.6 W 7 10 1005.8 - 0.2 - Partly cloudy 10 - - - -
24/04:00pm 14.6 W 12 18 1005.4 - 0.2 - Partly cloudy 10 - - - -
24/03:30pm 14.5 W 13 18 1005.1 - 0.2 - Partly cloudy 10 - - - -
24/03:00pm 14.1 W 15 22 1004.9 - 0.2 Showers Mostly cloudy 10 - - - -
24/02:30pm 15.7 W 17 27 1004.2 - 0.2 - Mostly clear 10 - - - -
24/02:02pm 15.0 W 15 25 1003.8 - 0.2 - Mostly clear 10 - - - -
24/02:00pm 15.0 W 15 22 1003.8 - 0.2 - Mostly clear 10 - - - -
24/01:53pm 15.0 W 17 27 1003.8 - 0.2 - Partly cloudy 10 - - - -
24/01:30pm 15.4 W 19 26 1003.5 - 0.2 - Mostly clear 10 - - - -
24/01:00pm 15.2 W 17 24 1003.1 - 0.2 - Mostly cloudy 10 - - - -
24/12:30pm 14.9 W 15 25 1003.2 - 0.2 Showers Mostly clear 10 - - - -
24/12:09pm 14.4 W 17 27 1003.2 - 0.2 - Mostly clear 10 - - - -
24/12:00pm 14.2 W 14 22 1003.3 - 0.2 - Mostly cloudy 10 - - - -
24/11:30am 12.9 W 13 18 1003.2 - 0.2 Showers Mostly clear 10 - - - -
24/11:00am 12.8 WSW 14 20 1002.9 - 0.0 Showers Mostly clear 9 - - - -
24/10:30am 14.4 W 11 24 1002.6 - 0.0 - Mostly clear 10 - - - -
24/10:00am 13.6 W 12 16 1002.5 - 0.0 Showers Mostly clear 9 - - - -
24/09:30am 14.2 WNW 12 15 1002.0 - 0.0 Showers Partly cloudy 9 - - - -
24/09:00am 12.9 W 13 20 1001.7 - 5.6 - Cloudy 6 - - - -
24/08:30am 13.0 W 13 19 1001.2 - 5.4 - Mostly clear 10 - - - -
24/08:00am 12.9 W 16 29 1000.7 - 5.4 Showers Mostly clear 8 - - - -
24/07:58am 13.2 W 15 29 1000.6 - 5.4 Showers Partly cloudy 6 - - - -
24/07:30am 13.3 W 15 21 999.5 - 5.4 - Partly cloudy 10 - - - -
24/07:00am 13.6 W 16 22 998.9 - 5.4 - Cloudy 10 - - - -

Other Formats:

Comma delimited format used in spreadsheet applications
http://www.bom.gov.au/fwo/IDW60701/IDW60701.94802.axf

JavaScript Object Notation format (JSON) in row-major order
http://www.bom.gov.au/fwo/IDW60701/IDW60701.94802.json